Floyd, New Mexico
Current Conditions -  °F | °C
As of 4:56 AM on Sunday 23 Nov 2014 (Local Time) from K4MR Reporting Station
Clear Clear  
Wind Chill: 39°   Ceiling: Unl
Heat Index: 45°   Visibility: 10mi
Dew Point: 19°   Wind: 12mph
Humidity: 35%   Direction: 270°W
Pressure: 29.69"   Gusts: NA
Location:  34.21°N, 103.58°W
Report Text: K4MR 231156Z AUTO 27010KT 10SM CLR 07/M07 A2969 RMK AO2 SLP025 T00731075 10124 20057
Loading
Personal Weather Stations






























Interactive Weather Map New forecast layout! Learn more

10-Day Weather Forecast

Advertisements
Track Severe Weather on mobile